Terminal Aerodrome Forecast
Issued by NWS

Home | Current Version | Previous Version | Text Only | Print | Product List | Glossary On
Versions: 1 2 3 4 5 6 7 8 9 10 11 12 13 14 15 16 17 18 19 20 21 22 23 24 25 26 27 28 29 30 31 32 33 34 35 36 37 38 39 40 41 42 43 44 45 46 47 48
000
FTUS41 KCTP 231155
TAFBFD
TAF
KBFD 231155Z 2312/2412 14008KT P6SM BKN200
     FM231500 15010G20KT P6SM BKN050
     FM232000 15015G25KT P6SM OVC025
     FM240000 16015G25KT 3SM SHRA OVC015 WS020/16050KT
     FM240600 20010KT P6SM OVC010=

USA.gov is the U.S. government's official web portal to all federal, state and local government web resources and services.